Jonesboro, Louisiana
Current Conditions -  °F | °C
As of 4:35 PM on Sunday 23 Nov 2014 (Local Time) from KRSN Reporting Station
Clear Clear  
Wind Chill: 68°   Ceiling: Unl
Heat Index: 68°   Visibility: 10mi
Dew Point: 60°   Wind: 12mph
Humidity: 75%   Direction: 200°SSW
Pressure: 29.48"   Gusts: NA
Location:  32.24°N, 92.72°W
Report Text: KRSN 232235Z AUTO 20010KT 10SM CLR 20/16 A2948 RMK AO2 P0005 T02010156
Loading
Personal Weather Stations






























Interactive Weather Map New forecast layout! Learn more

10-Day Weather Forecast

Advertisements
Track Severe Weather on mobile